Terminal Aerodrome Forecast
Issued by NWS

Home | Current Version | Previous Version | Text Only | Print | Product List | Glossary On
Versions: 1 2 3 4 5 6 7 8 9 10 11 12 13 14 15 16 17 18 19 20 21 22 23 24 25 26 27 28 29 30 31 32 33 34 35
430
FTUS44 KOUN 290520
TAFLAW
TAF
KLAW 290520Z 2906/3006 08010KT P6SM BKN050
      TEMPO 2908/2912 3SM -TSRA BR OVC025CB
     FM291200 11010G15KT 4SM -TSRA BR OVC008CB
     FM291700 15013KT P6SM BKN020
     FM292100 16014G20KT P6SM BKN040
     FM300300 34012KT P6SM SCT040 BKN120=

USA.gov is the U.S. government's official web portal to all federal, state and local government web resources and services.